Time;durP1;ratioP1;P1;durP2;ratioP2;P2;SDS_P1;SDS_P2;PMS_P1;PMS_P2;Temp;Humidity;BMP_temperature;BMP_pressure;BME280_temperature;BME280_humidity;BME280_pressure;Samples;Min_cycle;Max_cycle;Signal;HPM_P1;HPM_P2
2024/01/07 00:01:12;;;;;;;;;6.50;6.50;;;;;15.11;43.59;101311.63;5057852;28;59295;-72
2024/01/07 00:03:40;;;;;;;;;7.00;3.00;;;;;15.03;43.89;101314.78;5058930;28;45260;-72
2024/01/07 00:06:05;;;;;;;;;2.00;2.00;;;;;15.07;43.37;101316.31;5058039;28;45509;-72
2024/01/07 00:08:31;;;;;;;;;6.25;2.75;;;;;15.11;43.59;101317.91;5058613;28;46106;-72
2024/01/07 00:10:56;;;;;;;;;4.75;3.25;;;;;15.15;43.43;101318.59;5057833;28;56161;-72
2024/01/07 00:13:21;;;;;;;;;5.25;5.25;;;;;15.19;43.11;101319.31;5057769;28;61681;-71
2024/01/07 00:15:47;;;;;;;;;2.00;2.00;;;;;15.15;42.79;101315.91;5058367;28;45452;-72
2024/01/07 00:18:12;;;;;;;;;3.00;3.00;;;;;15.14;43.01;101319.59;5058436;28;45365;-72
2024/01/07 00:20:37;;;;;;;;;2.00;2.00;;;;;15.11;42.87;101326.00;5058405;28;45348;-71
2024/01/07 00:23:03;;;;;;;;;3.00;3.00;;;;;15.03;43.43;101320.16;5058955;28;45998;-72
2024/01/07 00:25:28;;;;;;;;;4.00;2.50;;;;;15.07;43.35;101323.56;5058204;28;45642;-72
2024/01/07 00:27:55;;;;;;;;;4.00;4.00;;;;;15.00;43.07;101331.13;5058225;28;45368;-72
2024/01/07 05:33:55;;;;;;;;;1.00;1.00;;;;;14.56;40.20;101454.06;5056939;28;45451;-72
2024/01/07 05:36:21;;;;;;;;;2.50;1.00;;;;;14.57;39.91;101463.91;5058772;28;45241;-72
2024/01/07 05:38:46;;;;;;;;;1.00;1.00;;;;;14.55;40.24;101447.78;5058084;28;45541;-72
2024/01/07 05:41:12;;;;;;;;;3.00;2.00;;;;;14.58;40.06;101455.75;5058173;28;45328;-72
2024/01/07 05:43:37;;;;;;;;;2.25;1.75;;;;;14.54;40.35;101459.56;5058675;28;45470;-72
2024/01/07 05:46:03;;;;;;;;;0.75;0.75;;;;;14.50;40.43;101460.66;5058105;28;45312;-72
2024/01/07 05:48:28;;;;;;;;;2.50;2.50;;;;;14.54;40.41;101470.38;5057742;28;45997;-72
2024/01/07 05:50:54;;;;;;;;;1.00;1.00;;;;;14.46;40.31;101464.44;5057946;28;46288;-72
2024/01/07 05:53:19;;;;;;;;;2.00;2.00;;;;;14.40;40.21;101459.38;5060176;28;45303;-71
2024/01/07 05:55:45;;;;;;;;;1.75;1.75;;;;;14.36;40.04;101461.34;5060408;28;57875;-72
2024/01/07 05:58:11;;;;;;;;;3.00;1.50;;;;;14.35;40.78;101467.69;5043338;28;47333;-73
2024/01/07 06:00:38;;;;;;;;;1.75;0.75;;;;;14.42;40.61;101475.50;5061867;28;45430;-73
2024/01/07 06:03:03;;;;;;;;;0.75;0.75;;;;;14.48;40.52;101467.06;5061725;28;45383;-72
2024/01/07 06:05:29;;;;;;;;;2.25;2.25;;;;;14.47;40.58;101486.91;5062002;28;45363;-72
2024/01/07 06:07:54;;;;;;;;;2.00;2.00;;;;;14.47;40.48;101476.13;5061692;28;45340;-71
2024/01/07 06:10:20;;;;;;;;;2.50;1.75;;;;;14.48;40.67;101484.13;5060979;28;59967;-73
2024/01/07 06:12:45;;;;;;;;;1.75;1.75;;;;;14.37;40.69;101475.69;5061852;28;45257;-71
2024/01/07 06:15:11;;;;;;;;;1.75;1.75;;;;;14.33;41.07;101471.41;5061062;28;56802;-73
2024/01/07 06:17:36;;;;;;;;;2.00;2.00;;;;;14.44;41.07;101484.38;5061267;28;45470;-72
2024/01/07 06:20:02;;;;;;;;;1.00;1.00;;;;;14.26;40.95;101467.25;5061271;28;53768;-72
2024/01/07 06:22:27;;;;;;;;;2.00;2.00;;;;;14.44;41.26;101485.25;5062440;28;45339;-72
2024/01/07 06:24:53;;;;;;;;;2.50;2.50;;;;;14.23;41.18;101478.19;5062830;28;62298;-73
2024/01/07 06:27:18;;;;;;;;;2.00;1.00;;;;;14.25;41.41;101477.16;5062670;28;45552;-72
2024/01/07 06:29:43;;;;;;;;;4.00;2.00;;;;;14.25;41.64;101481.69;5060718;28;65385;-73
2024/01/07 06:32:09;;;;;;;;;7.25;2.50;;;;;14.29;41.76;101480.59;5059998;28;66027;-72
2024/01/07 06:34:35;;;;;;;;;1.00;1.00;;;;;14.30;41.31;101477.81;5061808;28;45322;-74
2024/01/07 06:37:00;;;;;;;;;2.00;2.00;;;;;14.26;41.58;101487.00;5060304;28;45261;-73
2024/01/07 06:39:28;;;;;;;;;2.00;2.00;;;;;14.14;41.90;101487.59;5061189;28;45411;-72
2024/01/07 06:41:54;;;;;;;;;2.75;1.00;;;;;13.95;42.27;101474.13;5061114;28;45375;-72
2024/01/07 06:44:19;;;;;;;;;2.00;2.00;;;;;13.91;42.44;101477.06;5060913;28;58351;-73
2024/01/07 06:46:44;;;;;;;;;1.75;1.75;;;;;13.97;42.60;101487.53;5060937;28;45474;-72
2024/01/07 06:49:10;;;;;;;;;2.00;2.00;;;;;13.92;42.78;101495.00;5060996;28;46420;-71
2024/01/07 06:51:35;;;;;;;;;1.75;1.75;;;;;13.92;42.62;101486.91;5061030;28;45146;-73
2024/01/07 06:54:01;;;;;;;;;0.00;0.00;;;;;13.96;42.55;101491.19;5060999;28;45782;-72
2024/01/07 06:56:26;;;;;;;;;2.50;1.25;;;;;13.92;42.76;101492.28;5061038;28;45271;-72
2024/01/07 06:58:51;;;;;;;;;2.00;2.00;;;;;13.98;42.74;101502.78;5068909;28;63178;-72
2024/01/07 07:01:21;;;;;;;;;2.50;2.50;;;;;14.01;42.76;101498.13;5060843;28;45311;-71
2024/01/07 07:03:46;;;;;;;;;2.00;2.00;;;;;14.07;42.87;101504.16;5060268;28;45319;-72
2024/01/07 07:06:12;;;;;;;;;0.50;0.50;;;;;14.14;42.90;101503.78;5060221;28;56836;-72
2024/01/07 07:08:37;;;;;;;;;2.00;2.00;;;;;14.14;42.29;101509.19;5060717;28;45359;-71
2024/01/07 07:11:03;;;;;;;;;1.50;1.50;;;;;14.08;42.46;101517.56;5060669;28;45304;-71
2024/01/07 07:13:28;;;;;;;;;3.00;2.00;;;;;14.06;42.38;101508.69;5060584;28;45316;-71
2024/01/07 07:15:53;;;;;;;;;3.00;2.00;;;;;13.97;42.05;101518.06;5059873;28;62356;-72
2024/01/07 07:18:19;;;;;;;;;1.25;1.00;;;;;13.93;42.39;101524.56;5060033;28;60851;-71
2024/01/07 07:20:44;;;;;;;;;2.50;1.00;;;;;13.86;42.58;101514.16;5059730;28;59839;-72
2024/01/07 07:23:09;;;;;;;;;2.00;2.00;;;;;13.82;42.43;101521.50;5059581;28;57682;-71
2024/01/07 07:25:35;;;;;;;;;1.25;1.25;;;;;13.84;42.62;101535.78;5059746;28;45336;-72
2024/01/07 07:28:00;;;;;;;;;3.00;3.00;;;;;13.77;42.69;101530.75;5059572;28;69859;-71
2024/01/07 07:30:25;;;;;;;;;2.00;2.00;;;;;13.86;42.27;101538.41;5060056;28;57284;-72
2024/01/07 07:32:50;;;;;;;;;3.00;1.50;;;;;13.86;42.46;101535.72;5059706;28;45403;-71
2024/01/07 07:35:16;;;;;;;;;2.00;2.00;;;;;13.87;42.78;101548.22;5059877;28;49510;-71
2024/01/07 07:37:41;;;;;;;;;2.00;2.00;;;;;13.90;42.50;101542.69;5059580;28;69457;-71
2024/01/07 07:40:07;;;;;;;;;5.00;3.00;;;;;13.98;42.27;101541.41;5059602;28;49462;-71
2024/01/07 07:42:32;;;;;;;;;3.25;3.25;;;;;13.99;42.23;101534.19;5060325;28;45259;-70
2024/01/07 07:44:57;;;;;;;;;4.25;2.00;;;;;14.11;42.50;101547.09;5060199;28;45328;-69
2024/01/07 07:47:22;;;;;;;;;2.00;2.00;;;;;14.14;41.74;101537.97;5059297;28;61886;-69
2024/01/07 07:49:50;;;;;;;;;6.00;3.50;;;;;14.23;41.80;101542.91;5059211;28;64465;-70
2024/01/07 07:52:15;;;;;;;;;3.25;3.25;;;;;14.16;41.63;101536.06;5060275;28;45399;-70
2024/01/07 07:54:40;;;;;;;;;3.25;3.25;;;;;14.13;41.34;101542.47;5059725;28;45317;-68
2024/01/07 07:57:06;;;;;;;;;0.25;0.00;;;;;14.20;41.67;101538.56;5052018;28;64781;-69
2024/01/07 07:59:31;;;;;;;;;0.50;0.50;;;;;14.21;41.50;101550.19;5058814;28;45367;-69
2024/01/07 08:01:57;;;;;;;;;6.00;6.00;;;;;14.12;41.36;101550.66;5041862;28;45375;-69
2024/01/07 08:04:22;;;;;;;;;2.75;2.75;;;;;14.18;41.07;101556.63;5059363;28;54541;-69
2024/01/07 08:06:47;;;;;;;;;8.25;6.00;;;;;14.20;40.86;101560.16;5059814;28;46347;-69
2024/01/07 08:09:12;;;;;;;;;3.00;3.00;;;;;14.31;40.50;101573.09;5058752;28;66588;-69
2024/01/07 08:11:38;;;;;;;;;4.25;4.25;;;;;14.24;40.95;101564.44;5059615;28;52664;-69
2024/01/07 08:14:05;;;;;;;;;6.00;6.00;;;;;14.32;40.84;101570.31;5059444;28;45428;-69
2024/01/07 08:16:31;;;;;;;;;5.25;5.25;;;;;14.23;40.51;101567.19;5058478;28;46545;-70
2024/01/07 08:18:56;;;;;;;;;2.50;1.50;;;;;14.22;40.37;101578.91;5057582;28;45454;-69
2024/01/07 08:21:25;;;;;;;;;5.25;4.50;;;;;14.19;40.45;101571.00;5059586;28;45325;-69
2024/01/07 08:23:50;;;;;;;;;5.50;3.75;;;;;14.21;40.21;101579.88;5059327;28;45533;-70
2024/01/07 08:26:19;;;;;;;;;6.00;6.00;;;;;14.21;40.29;101579.88;5059099;28;60943;-70
2024/01/07 08:28:45;;;;;;;;;3.50;3.50;;;;;14.24;40.22;101582.44;5059283;28;45497;-70
2024/01/07 08:31:10;;;;;;;;;6.00;5.00;;;;;14.26;40.66;101580.53;5059338;28;45266;-70
2024/01/07 08:33:35;;;;;;;;;6.75;6.75;;;;;14.25;40.47;101570.69;5058334;28;54380;-70
2024/01/07 08:36:01;;;;;;;;;7.00;3.50;;;;;14.36;40.18;101582.72;5059878;28;62965;-70
2024/01/07 08:38:26;;;;;;;;;6.25;3.75;;;;;14.31;40.38;101583.88;5025273;28;45511;-68
2024/01/07 08:40:52;;;;;;;;;6.00;4.00;;;;;14.30;40.24;101580.31;5059333;28;45291;-69
2024/01/07 08:43:17;;;;;;;;;12.00;6.00;;;;;14.34;39.71;101583.75;5059478;28;47854;-68
2024/01/07 08:45:42;;;;;;;;;8.25;5.75;;;;;14.30;39.58;101580.31;5059026;28;46300;-68
2024/01/07 08:48:08;;;;;;;;;7.25;6.00;;;;;14.28;39.54;101579.53;5058988;28;45375;-69
2024/01/07 08:50:33;;;;;;;;;4.25;4.25;;;;;14.23;39.55;101576.16;5058737;28;55093;-69
2024/01/07 08:52:58;;;;;;;;;6.00;6.00;;;;;14.38;39.67;101594.31;5058360;28;45180;-60
2024/01/07 08:55:24;;;;;;;;;7.00;6.00;;;;;14.46;39.86;101593.97;5058035;28;68420;-61
2024/01/07 08:57:49;;;;;;;;;6.75;5.25;;;;;14.48;38.96;101586.66;5058436;28;61381;-69
2024/01/07 09:00:15;;;;;;;;;7.00;5.50;;;;;14.48;39.00;101608.25;5059382;28;45319;-69
2024/01/07 09:02:40;;;;;;;;;7.00;6.00;;;;;14.55;38.78;101603.44;5058223;28;45304;-68
2024/01/07 09:05:06;;;;;;;;;7.25;7.25;;;;;14.53;38.80;101598.13;5059174;28;45365;-69
2024/01/07 09:07:31;;;;;;;;;11.75;7.75;;;;;14.55;38.87;101603.44;5058372;28;45347;-68
2024/01/07 09:09:59;;;;;;;;;6.50;4.25;;;;;14.55;38.47;101598.03;5056057;28;45492;-68
2024/01/07 09:12:25;;;;;;;;;9.50;6.50;;;;;14.61;38.38;101614.81;5058935;28;45476;-68
2024/01/07 09:14:50;;;;;;;;;6.00;6.00;;;;;14.52;38.29;101609.88;5055870;28;45304;-68
2024/01/07 09:17:17;;;;;;;;;7.25;7.25;;;;;14.46;37.92;101601.22;5058371;28;49199;-67
2024/01/07 09:19:42;;;;;;;;;6.75;6.75;;;;;14.41;38.16;101598.72;5064862;28;45304;-68
2024/01/07 09:22:07;;;;;;;;;10.25;10.00;;;;;14.51;38.12;101613.50;5058654;28;45401;-69
2024/01/07 09:24:33;;;;;;;;;8.50;6.50;;;;;14.55;38.27;101611.53;5058090;28;64509;-65
2024/01/07 09:26:59;;;;;;;;;11.75;11.75;;;;;14.57;38.46;101613.22;5057845;28;61762;-65
2024/01/07 09:29:24;;;;;;;;;7.50;7.50;;;;;14.44;37.69;101611.19;5058523;28;45420;-70
2024/01/07 09:31:50;;;;;;;;;11.00;8.00;;;;;14.45;37.50;101618.34;5057548;28;45438;-69
2024/01/07 09:34:15;;;;;;;;;8.25;8.25;;;;;14.41;37.50;101616.72;5057771;28;45378;-70
2024/01/07 09:36:40;;;;;;;;;7.75;5.50;;;;;14.37;37.65;101626.78;5057621;28;64188;-72
2024/01/07 09:39:06;;;;;;;;;14.25;11.00;;;;;14.37;37.69;101621.38;5052085;28;59498;-72
2024/01/07 09:41:32;;;;;;;;;12.00;8.50;;;;;14.45;37.69;101638.09;5057597;28;45574;-70
2024/01/07 09:43:59;;;;;;;;;13.50;12.25;;;;;14.47;37.79;101633.47;5053603;28;45440;-71
2024/01/07 09:46:25;;;;;;;;;7.25;7.00;;;;;14.54;38.20;101645.75;5057257;28;45293;-71
2024/01/07 09:48:51;;;;;;;;;12.75;10.75;;;;;14.55;37.45;101630.41;5057766;28;45293;-71
2024/01/07 09:51:22;;;;;;;;;14.00;11.00;;;;;14.54;38.03;101632.28;5058100;28;45458;-71
2024/01/07 09:53:48;;;;;;;;;8.50;8.00;;;;;14.42;37.73;101626.56;5057650;28;45317;-70
2024/01/07 09:56:13;;;;;;;;;16.50;12.25;;;;;14.48;37.77;101631.66;5058232;28;45383;-71
2024/01/07 09:58:42;;;;;;;;;14.75;13.00;;;;;14.46;37.68;101633.59;5069045;28;45486;-71
2024/01/07 10:01:08;;;;;;;;;13.00;13.00;;;;;14.54;37.98;101634.09;5060128;28;45407;-70
2024/01/07 10:03:33;;;;;;;;;11.75;9.00;;;;;14.44;37.89;101630.06;5039510;28;47388;-71
2024/01/07 10:05:59;;;;;;;;;10.25;8.00;;;;;14.51;38.41;101636.91;5040082;28;45264;-71
2024/01/07 10:08:24;;;;;;;;;13.50;12.25;;;;;14.54;38.52;101640.38;5058371;28;45271;-71
2024/01/07 10:10:49;;;;;;;;;12.75;10.25;;;;;14.42;37.95;101627.44;5057623;28;53608;-71
2024/01/07 10:13:15;;;;;;;;;13.25;13.00;;;;;14.46;38.02;101637.13;5057919;28;45419;-71
2024/01/07 10:15:40;;;;;;;;;15.25;13.50;;;;;14.40;38.19;101637.44;5057612;28;45420;-72
2024/01/07 10:18:07;;;;;;;;;11.25;11.25;;;;;14.39;38.12;101639.25;5058096;28;45544;-72
2024/01/07 10:20:34;;;;;;;;;13.75;12.25;;;;;14.39;38.50;101639.25;5057034;28;45493;-72
2024/01/07 10:23:00;;;;;;;;;13.00;12.25;;;;;14.32;38.16;101634.19;5057764;28;45364;-72
2024/01/07 10:25:25;;;;;;;;;12.00;11.50;;;;;14.38;38.55;101639.28;5057548;28;45508;-71
2024/01/07 10:27:51;;;;;;;;;15.00;12.75;;;;;14.33;38.03;101646.72;5057737;28;45280;-72
2024/01/07 10:30:16;;;;;;;;;13.00;10.75;;;;;14.39;38.42;101657.25;5057733;28;45526;-71
2024/01/07 10:32:42;;;;;;;;;12.00;12.00;;;;;14.38;38.53;101645.59;5057507;28;45505;-71
2024/01/07 10:35:12;;;;;;;;;15.25;14.00;;;;;14.35;38.07;101634.06;5057599;28;45192;-72
2024/01/07 10:37:39;;;;;;;;;15.75;13.50;;;;;14.45;38.44;101661.50;5039993;28;45407;-73
2024/01/07 10:40:07;;;;;;;;;12.75;11.75;;;;;14.46;38.41;101647.06;5061000;28;45539;-71
2024/01/07 10:42:33;;;;;;;;;14.25;13.00;;;;;14.49;38.20;101653.19;5060303;28;46487;-70
2024/01/07 10:45:02;;;;;;;;;9.75;9.75;;;;;14.46;38.10;101642.53;5061093;28;45495;-72
2024/01/07 10:47:31;;;;;;;;;10.75;10.25;;;;;14.37;38.39;101654.59;5061246;28;45361;-72
2024/01/07 10:49:58;;;;;;;;;9.00;7.75;;;;;14.39;38.31;101657.25;5042690;28;45859;-72
2024/01/07 10:52:26;;;;;;;;;17.00;16.00;;;;;14.43;38.22;101658.00;5060991;28;46094;-72
2024/01/07 10:54:53;;;;;;;;;12.00;11.50;;;;;14.43;38.22;101658.88;5061009;28;45337;-71
2024/01/07 10:57:34;;;;;;;;;12.00;11.75;;;;;14.50;38.54;101652.22;5061247;28;45419;-71
2024/01/07 11:00:00;;;;;;;;;15.50;12.25;;;;;14.53;38.32;101644.00;5061324;28;45408;-70
2024/01/07 11:02:26;;;;;;;;;14.00;12.25;;;;;14.58;37.96;101655.44;5060610;28;45440;-72
2024/01/07 11:05:12;;;;;;;;;17.75;16.25;;;;;14.57;38.56;101642.88;5061147;28;45446;-70
2024/01/07 11:07:57;;;;;;;;;13.50;12.00;;;;;14.58;38.04;101639.25;5058927;28;45331;-71
2024/01/07 11:10:34;;;;;;;;;18.25;18.25;;;;;14.67;38.34;101646.03;5055326;28;45568;-72
2024/01/07 11:12:59;;;;;;;;;17.75;15.50;;;;;14.65;38.52;101646.09;5056018;28;46090;-71
2024/01/07 11:15:49;;;;;;;;;18.50;15.75;;;;;14.67;37.96;101649.59;5063805;28;45722;-72
2024/01/07 11:18:22;;;;;;;;;12.25;12.25;;;;;14.68;39.96;101651.34;5060850;28;45368;-69
2024/01/07 11:20:48;;;;;;;;;14.25;14.25;;;;;14.65;38.65;101642.53;5060172;28;45943;-68
2024/01/07 11:23:33;;;;;;;;;13.25;13.25;;;;;14.70;38.32;101651.28;5060534;28;45962;-68
2024/01/07 11:26:02;;;;;;;;;12.75;10.50;;;;;14.77;37.99;101650.91;5060591;28;45567;-66
2024/01/07 11:28:47;;;;;;;;;18.00;16.00;;;;;14.77;38.17;101647.34;5060242;28;45463;-73
2024/01/07 11:31:15;;;;;;;;;20.00;17.75;;;;;14.85;37.63;101652.34;5060239;28;45932;-72
2024/01/07 11:33:46;;;;;;;;;17.25;17.25;;;;;14.81;38.19;101654.31;5060032;28;46245;-72
2024/01/07 11:36:13;;;;;;;;;19.25;18.25;;;;;14.78;38.06;101654.47;5060180;28;45684;-72
2024/01/07 11:38:42;;;;;;;;;18.25;18.25;;;;;14.79;37.92;101653.53;5060431;28;45407;-72
2024/01/07 11:41:09;;;;;;;;;19.75;17.25;;;;;14.76;37.86;101651.84;5043765;28;46327;-72
2024/01/07 11:43:34;;;;;;;;;25.50;23.25;;;;;14.64;37.83;101643.47;5061303;28;45470;-72
2024/01/07 11:46:00;;;;;;;;;25.50;24.00;;;;;14.55;38.25;101655.56;5058783;28;45451;-71
2024/01/07 11:48:26;;;;;;;;;21.75;20.50;;;;;14.59;38.38;101659.88;5060083;28;45390;-71
2024/01/07 11:50:51;;;;;;;;;29.00;26.75;;;;;14.47;38.47;101665.84;5060146;28;45539;-69
2024/01/07 11:53:16;;;;;;;;;28.50;25.00;;;;;14.41;38.98;101649.09;5060161;28;45953;-72
2024/01/07 11:55:42;;;;;;;;;24.25;23.50;;;;;14.39;38.64;101654.56;5067679;28;58170;-72
2024/01/07 11:58:08;;;;;;;;;18.50;18.50;;;;;14.36;38.85;101660.97;5059949;28;45458;-71
2024/01/07 12:00:34;;;;;;;;;24.50;22.00;;;;;14.33;39.01;101658.41;5060033;28;45472;-72
2024/01/07 12:03:03;;;;;;;;;25.75;22.50;;;;;14.36;38.99;101660.97;5059456;28;45399;-72
2024/01/07 12:05:28;;;;;;;;;23.00;21.75;;;;;14.23;38.97;101665.16;5059380;28;45246;-70
2024/01/07 12:07:54;;;;;;;;;25.25;22.25;;;;;14.24;39.39;101658.81;5059242;28;45338;-70
2024/01/07 12:10:19;;;;;;;;;26.00;22.75;;;;;14.14;39.77;101646.69;5059300;28;45254;-71
2024/01/07 12:12:45;;;;;;;;;24.75;21.00;;;;;14.18;39.56;101659.13;5059183;28;45382;-71
2024/01/07 12:15:12;;;;;;;;;24.00;24.00;;;;;14.18;39.39;101652.84;5055799;28;45467;-70
2024/01/07 12:17:40;;;;;;;;;27.50;26.25;;;;;14.19;40.05;101650.09;5059318;28;45523;-73
2024/01/07 12:20:08;;;;;;;;;29.00;24.75;;;;;14.09;39.97;101651.44;5059622;28;45541;-72
2024/01/07 12:22:37;;;;;;;;;31.75;27.75;;;;;14.17;39.71;101656.47;5058913;28;46344;-74
2024/01/07 12:25:03;;;;;;;;;22.00;19.50;;;;;14.03;39.71;101639.09;5056802;28;45367;-72
2024/01/07 12:27:29;;;;;;;;;31.50;28.00;;;;;14.19;39.93;101651.91;5059612;28;45410;-74
2024/01/07 12:29:58;;;;;;;;;32.50;28.50;;;;;14.14;39.99;101653.91;5058880;28;45585;-73
2024/01/07 12:32:30;;;;;;;;;32.75;29.50;;;;;14.14;40.09;101652.09;5059208;28;45329;-72
2024/01/07 12:34:59;;;;;;;;;27.50;27.50;;;;;14.09;40.00;101648.75;5059557;28;45335;-71
2024/01/07 12:37:28;;;;;;;;;28.50;23.50;;;;;14.17;40.05;101654.66;5058364;28;45391;-71
2024/01/07 12:39:54;;;;;;;;;36.50;31.75;;;;;14.22;40.48;101651.75;5059304;28;45339;-73
2024/01/07 12:42:21;;;;;;;;;31.25;29.50;;;;;14.32;39.93;101653.06;5059733;28;45388;-72
2024/01/07 12:44:48;;;;;;;;;29.75;26.50;;;;;14.43;39.83;101647.22;5059129;28;45338;-71
2024/01/07 12:47:14;;;;;;;;;28.50;28.50;;;;;14.44;40.02;101655.22;5059463;28;45360;-73
2024/01/07 12:49:39;;;;;;;;;32.00;27.00;;;;;14.45;39.53;101645.31;5059290;28;45595;-72
2024/01/07 12:52:05;;;;;;;;;29.25;24.25;;;;;14.47;40.01;101655.06;5058718;28;55510;-72
2024/01/07 12:54:30;;;;;;;;;31.00;30.00;;;;;14.47;39.89;101657.75;5059498;28;45340;-71
2024/01/07 12:56:55;;;;;;;;;28.25;25.50;;;;;14.42;39.83;101662.50;5060157;28;45474;-71
2024/01/07 12:59:21;;;;;;;;;27.75;24.25;;;;;14.48;39.81;101664.91;5050852;28;45508;-72
2024/01/07 13:01:46;;;;;;;;;34.00;33.25;;;;;14.52;39.93;101662.97;5057999;28;57391;-72
2024/01/07 13:04:12;;;;;;;;;30.75;27.75;;;;;14.55;39.85;101666.38;5040065;28;45341;-74
2024/01/07 13:06:37;;;;;;;;;38.00;30.00;;;;;14.51;39.79;101651.28;5055908;28;45376;-72
2024/01/07 13:09:03;;;;;;;;;29.00;26.50;;;;;14.51;39.58;101656.69;5056263;28;45234;-75
2024/01/07 13:11:29;;;;;;;;;37.25;29.50;;;;;14.52;39.91;101658.44;5058869;28;46600;-79
2024/01/07 13:13:58;;;;;;;;;31.00;30.50;;;;;14.53;39.53;101660.19;5058991;28;45485;-76
2024/01/07 13:16:25;;;;;;;;;33.50;28.00;;;;;14.51;40.12;101656.69;5058760;28;45485;-67
2024/01/07 13:18:50;;;;;;;;;30.00;28.00;;;;;14.52;40.16;101665.66;5058960;28;45948;-71
2024/01/07 13:21:17;;;;;;;;;38.50;31.50;;;;;14.51;40.29;101653.09;5041372;28;48169;-71
2024/01/07 13:23:43;;;;;;;;;39.75;34.00;;;;;14.49;40.08;101653.19;5041552;28;45943;-71
2024/01/07 13:26:10;;;;;;;;;27.25;25.75;;;;;14.63;39.75;101664.19;5058244;28;45342;-70
2024/01/07 13:28:35;;;;;;;;;35.00;33.00;;;;;14.65;39.83;101658.72;5059042;28;46315;-73
2024/01/07 13:31:00;;;;;;;;;26.75;25.25;;;;;14.69;39.52;101660.31;5058100;28;45523;-71
2024/01/07 13:33:26;;;;;;;;;39.75;34.50;;;;;14.61;39.61;101663.41;5072341;28;45368;-72
2024/01/07 13:35:51;;;;;;;;;29.75;25.75;;;;;14.46;39.72;101639.81;5057784;28;45273;-72
2024/01/07 13:38:16;;;;;;;;;30.25;27.75;;;;;14.58;39.86;101659.97;5040587;28;45546;-74
2024/01/07 13:40:42;;;;;;;;;40.75;36.50;;;;;14.59;39.63;101667.13;5057768;28;63804;-73
2024/01/07 13:43:07;;;;;;;;;36.25;31.50;;;;;14.62;39.73;101664.28;5058136;28;64279;-74
2024/01/07 13:45:32;;;;;;;;;28.50;28.25;;;;;14.60;39.55;101655.38;5056603;28;45330;-70
2024/01/07 13:47:58;;;;;;;;;32.75;30.50;;;;;14.60;39.44;101655.38;5057715;28;61463;-71
2024/01/07 13:50:23;;;;;;;;;29.75;24.25;;;;;14.61;39.44;101660.69;5039773;28;66124;-70
2024/01/07 13:52:48;;;;;;;;;37.00;26.00;;;;;14.65;39.51;101675.78;5057840;28;53748;-70
2024/01/07 13:55:13;;;;;;;;;27.25;23.50;;;;;14.63;39.55;101671.44;5057916;28;45395;-70
2024/01/07 13:57:41;;;;;;;;;30.00;30.00;;;;;14.65;39.58;101673.09;5058393;28;45476;-72
2024/01/07 14:00:09;;;;;;;;;28.25;24.00;;;;;14.50;39.56;101671.13;5057329;28;46340;-72
2024/01/07 14:02:37;;;;;;;;;27.75;23.50;;;;;14.43;39.45;101679.59;5057870;28;45444;-71
2024/01/07 14:05:05;;;;;;;;;30.00;28.50;;;;;14.42;39.63;101675.13;5058613;28;45336;-68
2024/01/07 14:07:31;;;;;;;;;22.50;20.00;;;;;14.49;39.96;101690.06;5050559;28;45609;-61
2024/01/07 14:09:56;;;;;;;;;30.75;27.00;;;;;14.56;39.77;101681.63;5056353;28;46283;-70
2024/01/07 14:12:21;;;;;;;;;29.75;26.00;;;;;14.58;39.59;101695.91;5058055;28;45371;-71
2024/01/07 14:14:47;;;;;;;;;25.00;24.75;;;;;14.56;39.60;101684.31;5059224;28;66141;-72
2024/01/07 14:17:12;;;;;;;;;27.00;24.75;;;;;14.55;39.65;101687.09;5060207;28;45632;-70
2024/01/07 14:19:37;;;;;;;;;26.75;26.00;;;;;14.49;39.43;101690.94;5061696;28;46315;-70
2024/01/07 14:22:03;;;;;;;;;33.50;30.50;;;;;14.49;39.60;101703.56;5060935;28;63410;-70
2024/01/07 14:24:28;;;;;;;;;28.75;27.75;;;;;14.44;39.69;101682.22;5062073;28;45327;-72
2024/01/07 14:26:53;;;;;;;;;30.50;28.00;;;;;14.44;39.69;101686.72;5061704;28;45400;-69
2024/01/07 14:29:19;;;;;;;;;32.75;29.75;;;;;14.42;39.83;101686.78;5060957;28;63893;-70
2024/01/07 14:31:45;;;;;;;;;33.75;29.75;;;;;14.44;39.79;101697.53;5060457;28;58115;-70
2024/01/07 14:34:10;;;;;;;;;28.50;24.25;;;;;14.47;40.21;101697.34;5061732;28;45360;-70
2024/01/07 14:36:41;;;;;;;;;37.25;32.75;;;;;14.42;39.86;101710.19;5061200;28;50162;-71
2024/01/07 14:39:08;;;;;;;;;25.25;23.75;;;;;14.36;40.17;101716.72;5054198;28;46133;-70
2024/01/07 14:41:34;;;;;;;;;27.75;26.25;;;;;14.34;39.84;101706.00;5052069;28;45382;-70
2024/01/07 14:44:00;;;;;;;;;30.00;28.00;;;;;14.36;40.00;101724.81;5054238;28;45424;-71
2024/01/07 14:46:25;;;;;;;;;23.00;23.00;;;;;14.30;40.47;101712.47;5060031;28;45968;-70
2024/01/07 14:48:50;;;;;;;;;29.00;27.25;;;;;14.33;40.26;101719.56;5052388;28;60518;-71
2024/01/07 14:51:15;;;;;;;;;28.50;28.50;;;;;14.37;40.57;101734.69;5054424;28;45288;-73
2024/01/07 14:53:41;;;;;;;;;32.75;25.25;;;;;14.36;40.17;101728.41;5050815;28;63858;-70
2024/01/07 14:56:07;;;;;;;;;31.00;30.75;;;;;14.30;39.94;101723.25;5052725;28;45319;-73
2024/01/07 14:58:32;;;;;;;;;39.50;32.50;;;;;14.30;40.05;101720.56;5052908;28;47062;-71
2024/01/07 15:00:57;;;;;;;;;32.50;32.50;;;;;14.32;40.17;101720.50;5055098;28;45194;-75
2024/01/07 15:03:25;;;;;;;;;35.75;33.00;;;;;14.33;40.08;101724.97;5056798;28;45296;-74
2024/01/07 15:05:50;;;;;;;;;31.50;28.75;;;;;14.22;40.23;101713.78;5057154;28;45409;-74
2024/01/07 15:08:15;;;;;;;;;38.75;34.00;;;;;14.36;40.38;101735.63;5052221;28;47337;-75
2024/01/07 15:10:41;;;;;;;;;39.75;36.25;;;;;14.41;40.60;101743.53;5054263;28;45522;-76
2024/01/07 15:13:07;;;;;;;;;35.25;31.00;;;;;14.31;40.27;101735.81;5040797;28;45396;-74
2024/01/07 15:15:32;;;;;;;;;30.50;29.00;;;;;14.35;40.38;101747.34;5055703;28;62222;-74
2024/01/07 15:17:58;;;;;;;;;35.75;30.75;;;;;14.23;40.92;101734.41;5058944;28;63453;-72
2024/01/07 15:20:24;;;;;;;;;39.00;33.50;;;;;14.32;40.91;101742.09;5056871;28;45473;-74
2024/01/07 15:22:49;;;;;;;;;25.75;23.75;;;;;14.29;40.94;101755.72;5059730;28;45325;-73
2024/01/07 15:25:15;;;;;;;;;35.50;31.50;;;;;14.28;40.51;101756.66;5059680;28;45317;-73
2024/01/07 15:27:40;;;;;;;;;41.00;36.25;;;;;14.18;40.47;101752.63;5058222;28;46359;-71
2024/01/07 15:30:07;;;;;;;;;36.25;32.50;;;;;14.20;40.77;101758.84;5060413;28;45242;-73
2024/01/07 15:32:32;;;;;;;;;37.00;35.50;;;;;14.12;40.69;101755.63;5059251;28;45370;-73
2024/01/07 15:34:58;;;;;;;;;37.50;29.50;;;;;14.19;40.50;101765.19;5060136;28;45288;-73
2024/01/07 15:37:23;;;;;;;;;34.75;31.50;;;;;14.12;40.43;101769.09;5059329;28;45410;-74
2024/01/07 15:39:51;;;;;;;;;35.50;32.75;;;;;14.17;40.18;101756.28;5058683;28;45430;-74
2024/01/07 15:42:16;;;;;;;;;31.00;30.50;;;;;14.05;40.60;101754.97;5059789;28;45702;-72
2024/01/07 15:44:43;;;;;;;;;30.50;28.00;;;;;14.04;40.47;101766.72;5059999;28;45699;-71
2024/01/07 15:47:09;;;;;;;;;34.00;29.75;;;;;14.01;40.27;101770.44;5059162;28;45532;-66
2024/01/07 15:49:34;;;;;;;;;35.00;30.25;;;;;14.01;40.80;101775.81;5059143;28;45356;-67
2024/01/07 15:51:59;;;;;;;;;27.75;27.25;;;;;13.99;40.56;101779.53;5059039;28;45596;-66
2024/01/07 15:54:24;;;;;;;;;32.50;31.50;;;;;13.99;40.25;101783.09;5052665;28;67526;-66
2024/01/07 15:56:50;;;;;;;;;35.25;33.25;;;;;14.01;40.90;101785.72;5057497;28;62302;-67
2024/01/07 15:59:17;;;;;;;;;39.50;34.75;;;;;13.99;40.92;101793.00;5057627;28;45469;-66
2024/01/07 16:01:46;;;;;;;;;34.75;32.25;;;;;13.99;40.68;101785.78;5058318;28;45309;-66
2024/01/07 16:04:14;;;;;;;;;37.00;33.00;;;;;14.00;40.66;101792.94;5058468;28;45403;-66
2024/01/07 16:06:39;;;;;;;;;29.50;27.50;;;;;14.03;40.64;101784.69;5059999;28;46185;-67
2024/01/07 16:09:05;;;;;;;;;32.25;26.75;;;;;14.06;41.00;101797.19;5059669;28;45352;-68
2024/01/07 16:11:30;;;;;;;;;36.25;28.75;;;;;14.06;40.61;101801.69;5059394;28;51020;-68
2024/01/07 16:13:55;;;;;;;;;38.25;28.25;;;;;14.05;40.55;101787.34;5058956;28;56524;-66
2024/01/07 16:16:20;;;;;;;;;33.75;29.25;;;;;14.12;40.58;101793.38;5057685;28;63281;-69